Participated 5 times
Between 1910 and 1914
Charles Dumont, Switzerland
Tour de France 2026 starts from Barcelona, Spain in

Stats and Facts from
Tour de France.

2026   2025   2024   2023  2022  2021  2020  2019   2018  2017   2016   2015  2014  2013   2012   2011  2010   2009   2008   2007   2006   2005   2004   2003   2002   2001   2000   1999   1998   1997  1996   1995   1994   1993   1992  1991   1990   1989   1988   1987   1986   1985   1984   1983  1982  1981   1980   1979  1978  1977   1976  1975  1974  1973   1972   1971   1970  1969   1968   1967   1966   1965  1964  1963   1962   1961   1960   1959   1958   1957  1956   1955   1954   1953   1952  1951  1950  1949   1948  1947  1939   1938   1937   1936   1935   1934   1933  1932   1931   1930  1929   1928   1927   1926  1925  1924  1923   1922   1921   1920   1919  1914   1913   1912   1911   1910  1909   1908   1907   1906  1905  1904   1903 

Tourstats
Sitemap

After stage 21 - 2025:
 16451 starters.
  5464 different riders.
  689 teams.
  2398 stages.
  470 restdays.
  466506.50 km.
  5925 abandoned riders.

Click map for 2012 route.
Facts from Tour de France 2012
  |   Stages.  |   Stage winners.  |   Days in jerseys.  |   Teams.  |   All riders.  |   All riders by age.  |   All riders from.  |  

  |   Rookies.  |   Withdrawls.  |   Average speed.  |   GC.  |   Polka  |   Green  |   White  |   Summits. (In tour)  |   Miscellaneous.  |  

Stage 6 on July 6th. 2012
Pick a stage:  Pro  1  2  3  4  5  6  7  8  9  10  11  12  13  14  15  16  17  18  19  20  

After stage 6:    Fabian Cancellara    Michael Mørkøv    Peter Sagan    Tejay Van Garderen  
  ÉpernayMetz | Dist: 205.00km. | Winner: Peter Sagan

Podium
4  Côte de Buxières David Zabriskieafter145.00 km.


Average speed for all riders in stage:  43,649 km./hr.

1
 Peter Sagan  Liquigas-Cannondale04h 37' 00"=44,404  km/h

2
 André Greipel  Lotto-Belisol04h 37' 00"=44,404  km/h

3
 Matthew Goss  Orica-GreenEDGE04h 37' 00"=44,404  km/h

4  Kenny van Hummel  Vacansoleil-DCM04h 37' 00"=44,404  km/h

5  Juan José Haedo  Saxo Bank-Tinkoff Bank04h 37' 00"=44,404  km/h

6  Gregory Henderson  Lotto-Belisol04h 37' 00"=44,404  km/h

7  Alessandro Petacchi  Lampre-ISD04h 37' 00"=44,404  km/h

8  Luca Paolini  Katusha04h 37' 00"=44,404  km/h

9  Daryl Impey  Orica-GreenEDGE04h 37' 00"=44,404  km/h

10  Brett Lancaster  Orica-GreenEDGE04h 37' 04"+  00:00:04 =44,394  km/h

11  Sébastien Hinault  AG2R La Mondiale04h 37' 04"+  00:00:04 =44,394  km/h

12  Roy Curvers  Argos–Shimano04h 37' 04"+  00:00:04 =44,394  km/h

13  Julien Simon  Saur-Sojasun04h 37' 04"+  00:00:04 =44,394  km/h

14  Cadel Evans  BMC04h 37' 04"+  00:00:04 =44,394  km/h

15  Bernhard Eisel  Sky Procycling04h 37' 04"+  00:00:04 =44,394  km/h

16  Vincenzo Nibali  Liquigas-Cannondale04h 37' 04"+  00:00:04 =44,394  km/h

17  Marco Marcato  Vacansoleil-DCM04h 37' 04"+  00:00:04 =44,394  km/h

18  Andréas  Klöden  Radioshack–Nissan04h 37' 04"+  00:00:04 =44,394  km/h

19  Samuel Sanchez  Euskaltel-Euskadi04h 37' 04"+  00:00:04 =44,394  km/h

20  Nicolas Roche  AG2R La Mondiale04h 37' 04"+  00:00:04 =44,394  km/h

21  Bradley Wiggins  Sky Procycling04h 37' 04"+  00:00:04 =44,394  km/h

22  Ruben Perez  Euskaltel-Euskadi04h 37' 04"+  00:00:04 =44,394  km/h

23  Maxime Monfort  Radioshack–Nissan04h 37' 04"+  00:00:04 =44,394  km/h

24  Michael Rogers  Sky Procycling04h 37' 04"+  00:00:04 =44,394  km/h

25  Samuel Dumoulin  Cofidis Le Credit En Ligne04h 37' 04"+  00:00:04 =44,394  km/h

26  Jurgen Van Den Broeck  Lotto-Belisol04h 37' 04"+  00:00:04 =44,394  km/h

27  Jürgen Roelandts  Lotto-Belisol04h 37' 04"+  00:00:04 =44,394  km/h

28  Peter Velits  Omega Pharma – Quick Step04h 37' 04"+  00:00:04 =44,394  km/h

29  George Hincapie  BMC04h 37' 04"+  00:00:04 =44,394  km/h

30  Kris Boeckmans  Vacansoleil-DCM04h 37' 04"+  00:00:04 =44,394  km/h

31  Egoi Martínez  Euskaltel-Euskadi04h 37' 04"+  00:00:04 =44,394  km/h

32  Jonathan Cantwell  Saxo Bank-Tinkoff Bank04h 37' 04"+  00:00:04 =44,394  km/h

33  Tony Gallopin  Radioshack–Nissan04h 37' 04"+  00:00:04 =44,394  km/h

34  Philippe Gilbert  BMC04h 37' 04"+  00:00:04 =44,394  km/h

35  Gorka Izagirre  Euskaltel-Euskadi04h 37' 04"+  00:00:04 =44,394  km/h

36  Christian Knees  Sky Procycling04h 37' 04"+  00:00:04 =44,394  km/h

37  Fabian Cancellara  Radioshack–Nissan04h 37' 04"+  00:00:04 =44,394  km/h

38  Sylvain Chavanel  Omega Pharma – Quick Step04h 37' 04"+  00:00:04 =44,394  km/h

39  Tejay Van Garderen  BMC04h 37' 04"+  00:00:04 =44,394  km/h

40  Mikaël Cherel  AG2R La Mondiale04h 37' 04"+  00:00:04 =44,394  km/h

41  Jérôme Pineau  Omega Pharma – Quick Step04h 37' 04"+  00:00:04 =44,394  km/h

42  Chris Froome  Sky Procycling04h 37' 04"+  00:00:04 =44,394  km/h

43  Kevin De Weert  Omega Pharma – Quick Step04h 37' 04"+  00:00:04 =44,394  km/h

44  Christopher Horner  Radioshack–Nissan04h 37' 04"+  00:00:04 =44,394  km/h

45  Jorge Azanza  Euskaltel-Euskadi04h 37' 04"+  00:00:04 =44,394  km/h

46  Levi Leipheimer  Omega Pharma – Quick Step04h 37' 04"+  00:00:04 =44,394  km/h

47  Sébastien Minard  AG2R La Mondiale04h 37' 04"+  00:00:04 =44,394  km/h

48  Jérémy Roy  FDJ – Big Mat04h 37' 04"+  00:00:04 =44,394  km/h

49  Rémy Di Grégorio  Cofidis Le Credit En Ligne04h 37' 04"+  00:00:04 =44,394  km/h

50  Haimar  Zubeldía  Radioshack–Nissan04h 37' 04"+  00:00:04 =44,394  km/h

51  Denis Menchov  Katusha04h 37' 04"+  00:00:04 =44,394  km/h

52  Bert Grabsch  Omega Pharma – Quick Step04h 37' 04"+  00:00:04 =44,394  km/h

53  Vladimir Gusev  Katusha04h 37' 04"+  00:00:04 =44,394  km/h

54  Ivan Basso  Liquigas-Cannondale04h 37' 04"+  00:00:04 =44,394  km/h

55  Jérôme Coppel  Saur-Sojasun04h 37' 04"+  00:00:04 =44,394  km/h

56  Eduard Vorganov  Katusha04h 37' 04"+  00:00:04 =44,394  km/h

57  Michael Schär  BMC04h 37' 04"+  00:00:04 =44,394  km/h

58  Rui Costa  Movistar04h 37' 04"+  00:00:04 =44,394  km/h

59  Baden Cooke  Orica-GreenEDGE04h 37' 04"+  00:00:04 =44,394  km/h

60  Maxime Bouet  AG2R La Mondiale04h 37' 04"+  00:00:04 =44,394  km/h

61  Jens Voigt  Radioshack–Nissan04h 37' 04"+  00:00:04 =44,394  km/h

62  Rein Taaramäe  Cofidis Le Credit En Ligne04h 37' 04"+  00:00:04 =44,394  km/h

63  Alessandro Vanotti  Liquigas-Cannondale04h 37' 15"+  00:00:15 =44,364  km/h

64  Danilo Hondo  Lampre-ISD04h 37' 16"+  00:00:16 =44,362  km/h

65  Marcel Sieberg  Lotto-Belisol04h 37' 21"+  00:00:21 =44,348  km/h

66  Michael Mørkøv  Saxo Bank-Tinkoff Bank04h 37' 32"+  00:00:32 =44,319  km/h

67  Marcus Burghardt  BMC04h 37' 32"+  00:00:32 =44,319  km/h

68  Stephen Cummings  BMC04h 37' 32"+  00:00:32 =44,319  km/h

69  Davide Malacarne  Europcar04h 37' 32"+  00:00:32 =44,319  km/h

70  Jean-Marc Marino  Saur-Sojasun04h 37' 32"+  00:00:32 =44,319  km/h

71  Pablo Urtasun  Euskaltel-Euskadi04h 37' 32"+  00:00:32 =44,319  km/h

72  Karsten Kroon  Saxo Bank-Tinkoff Bank04h 37' 55"+  00:00:55 =44,258  km/h

73  David Zabriskie  Garmin-Sharp-Barracuda04h 37' 55"+  00:00:55 =44,258  km/h

74  Adam Hansen  Lotto-Belisol04h 37' 57"+  00:00:57 =44,253  km/h

75  Manuel Quinziato  BMC04h 38' 10"+  00:01:10 =44,218  km/h

76  Lars Bak  Lotto-Belisol04h 38' 20"+  00:01:20 =44,192  km/h

77  Simon Gerrans  Orica-GreenEDGE04h 38' 22"+  00:01:22 =44,186  km/h

78  Stuart O'Grady  Orica-GreenEDGE04h 38' 22"+  00:01:22 =44,186  km/h

79  Romain Zingle  Cofidis Le Credit En Ligne04h 38' 39"+  00:01:39 =44,141  km/h

80  Michele Scarponi  Lampre-ISD04h 39' 09"+  00:02:09 =44,062  km/h

81  Janez Brajkovič  Astana Pro Team04h 39' 09"+  00:02:09 =44,062  km/h

82  Fränk Schleck  Radioshack–Nissan04h 39' 09"+  00:02:09 =44,062  km/h

83  Cyril Gautier  Europcar04h 39' 09"+  00:02:09 =44,062  km/h

84  Sérgio Paulinho  Saxo Bank-Tinkoff Bank04h 39' 09"+  00:02:09 =44,062  km/h

85  Pierre Rolland  Europcar04h 39' 09"+  00:02:09 =44,062  km/h

86  Thibaut Pinot  FDJ – Big Mat04h 39' 09"+  00:02:09 =44,062  km/h

87  Patrick Gretsch  Argos–Shimano04h 39' 09"+  00:02:09 =44,062  km/h

88  Bauke Mollema  Rabobank04h 39' 09"+  00:02:09 =44,062  km/h

89  Arthur Vichot  FDJ – Big Mat04h 39' 09"+  00:02:09 =44,062  km/h

90  Christophe Riblon  AG2R La Mondiale04h 39' 09"+  00:02:09 =44,062  km/h

91  Chris Anker Sørensen  Saxo Bank-Tinkoff Bank04h 39' 09"+  00:02:09 =44,062  km/h

92  Yauheni Hutarovich  FDJ – Big Mat04h 39' 09"+  00:02:09 =44,062  km/h

93  Giovanni Bernaudeau  Europcar04h 39' 09"+  00:02:09 =44,062  km/h

94  Sylwester Szmyd  Liquigas-Cannondale04h 39' 09"+  00:02:09 =44,062  km/h

95  Jelle Vanendert  Lotto-Belisol04h 39' 09"+  00:02:09 =44,062  km/h

96  Nick Nuyens  Saxo Bank-Tinkoff Bank04h 39' 09"+  00:02:09 =44,062  km/h

97  Edvald Boasson Hagen  Sky Procycling04h 39' 09"+  00:02:09 =44,062  km/h

98  Jean-Christophe Peraud  AG2R La Mondiale04h 39' 09"+  00:02:09 =44,062  km/h

99  Matthieu Ladagnous  FDJ – Big Mat04h 39' 09"+  00:02:09 =44,062  km/h

100  Rafael Valls Ferri  Vacansoleil-DCM04h 39' 09"+  00:02:09 =44,062  km/h

101  Alejandro Valverde  Movistar04h 39' 09"+  00:02:09 =44,062  km/h

102  Marco Marzano  Lampre-ISD04h 39' 09"+  00:02:09 =44,062  km/h

103  Martin Velits  Omega Pharma – Quick Step04h 39' 09"+  00:02:09 =44,062  km/h

104  Amaël Moinard  BMC04h 39' 09"+  00:02:09 =44,062  km/h

105  Nicolas Edet  Cofidis Le Credit En Ligne04h 39' 09"+  00:02:09 =44,062  km/h

106  Tony Martin  Omega Pharma – Quick Step04h 39' 09"+  00:02:09 =44,062  km/h

107  Kristjan Koren  Liquigas-Cannondale04h 39' 18"+  00:02:18 =44,039  km/h

108  Juan José Cobo  Movistar04h 39' 21"+  00:02:21 =44,031  km/h

109  Blel Kadri  AG2R La Mondiale04h 40' 13"+  00:03:13 =43,895  km/h

110  Robert Gesink  Rabobank04h 40' 31"+  00:03:31 =43,848  km/h

111  Steven Kruijswijk  Rabobank04h 40' 31"+  00:03:31 =43,848  km/h

112  Borut Božič  Astana Pro Team04h 40' 52"+  00:03:52 =43,793  km/h

113  Michael Albasini  Orica-GreenEDGE04h 41' 53"+  00:04:53 =43,635  km/h

114  Sebastian Langeveld  Orica-GreenEDGE04h 41' 53"+  00:04:53 =43,635  km/h

115  Sandy Casar  FDJ – Big Mat04h 42' 11"+  00:05:11 =43,589  km/h

116  Koen De Kort  Argos–Shimano04h 43' 02"+  00:06:02 =43,458  km/h

117  Albert Timmer  Argos–Shimano04h 43' 02"+  00:06:02 =43,458  km/h

118  Andrey Kashechkin  Astana Pro Team04h 43' 02"+  00:06:02 =43,458  km/h

119  Tom Veelers  Argos–Shimano04h 43' 02"+  00:06:02 =43,458  km/h

120  Joan Horrach  Katusha04h 43' 02"+  00:06:02 =43,458  km/h

121  Yuriy Krivtsov  Lampre-ISD04h 43' 02"+  00:06:02 =43,458  km/h

122  Mark Renshaw  Rabobank04h 43' 02"+  00:06:02 =43,458  km/h

123  Mark Cavendish  Sky Procycling04h 43' 02"+  00:06:02 =43,458  km/h

124  Pierrick  Fédrigo  FDJ – Big Mat04h 43' 02"+  00:06:02 =43,458  km/h

125  Yaroslav Popovych  Radioshack–Nissan04h 43' 02"+  00:06:02 =43,458  km/h

126  Andriy Grivko  Astana Pro Team04h 43' 02"+  00:06:02 =43,458  km/h

127  Pieter Weening  Orica-GreenEDGE04h 43' 02"+  00:06:02 =43,458  km/h

128  Cédric Pineau  FDJ – Big Mat04h 43' 02"+  00:06:02 =43,458  km/h

129  Johnny Hoogerland  Vacansoleil-DCM04h 43' 02"+  00:06:02 =43,458  km/h

130  Thomas  Voeckler  Europcar04h 43' 02"+  00:06:02 =43,458  km/h

131  Yohann Gène  Europcar04h 43' 02"+  00:06:02 =43,458  km/h

132  Daniel Oss  Liquigas-Cannondale04h 43' 02"+  00:06:02 =43,458  km/h

133  David Moncoutié  Cofidis Le Credit En Ligne04h 43' 02"+  00:06:02 =43,458  km/h

134  Giampaolo Caruso  Katusha04h 43' 02"+  00:06:02 =43,458  km/h

135  Óscar Freire  Katusha04h 43' 02"+  00:06:02 =43,458  km/h

136  Luis León Sánchez  Rabobank04h 43' 02"+  00:06:02 =43,458  km/h

137  Vincent Jérôme  Europcar04h 43' 02"+  00:06:02 =43,458  km/h

138  Dries Devenyns  Omega Pharma – Quick Step04h 44' 00"+  00:07:00 =43,310  km/h

139  Anthony Roux  FDJ – Big Mat04h 45' 04"+  00:08:04 =43,148  km/h

140  Anthony Delaplace  Saur-Sojasun04h 45' 04"+  00:08:04 =43,148  km/h

141  Matthew Lloyd  Lampre-ISD04h 45' 04"+  00:08:04 =43,148  km/h

142  Vasil Kiryienka  Movistar04h 47' 01"+  00:10:01 =42,855  km/h

143  Jan Ghyselinck  Cofidis Le Credit En Ligne04h 47' 01"+  00:10:01 =42,855  km/h

144  José Ivan Gutierrez  Movistar04h 47' 01"+  00:10:01 =42,855  km/h

145  Guillaume Levarlet  Saur-Sojasun04h 47' 01"+  00:10:01 =42,855  km/h

146  Yann Huguet  Argos–Shimano04h 47' 01"+  00:10:01 =42,855  km/h

147  Gustav-Erik Larsson  Vacansoleil-DCM04h 47' 50"+  00:10:50 =42,733  km/h

148  Fabrice Jeandesboz  Saur-Sojasun04h 47' 50"+  00:10:50 =42,733  km/h

149  Aliaksandr Kuchynski  Katusha04h 50' 24"+  00:13:24 =42,355  km/h

150  Dimitiri Fofonov  Astana Pro Team04h 50' 24"+  00:13:24 =42,355  km/h

151  Cyril Lemoine  Saur-Sojasun04h 50' 24"+  00:13:24 =42,355  km/h

152  Johannes Fröhlinger  Argos–Shimano04h 50' 24"+  00:13:24 =42,355  km/h

153  Matthieu Sprick  Argos–Shimano04h 50' 24"+  00:13:24 =42,355  km/h

154  Jimmy Engoulvent  Saur-Sojasun04h 50' 24"+  00:13:24 =42,355  km/h

155  Fredrik Kessiakoff  Astana Pro Team04h 50' 24"+  00:13:24 =42,355  km/h

156  Robert Kišerlovski  Astana Pro Team04h 50' 24"+  00:13:24 =42,355  km/h

157  Nicki Sørensen  Saxo Bank-Tinkoff Bank04h 50' 24"+  00:13:24 =42,355  km/h

158  Yukiya  Arashiro  Europcar04h 50' 24"+  00:13:24 =42,355  km/h

159  Maxim Iglinskiy  Astana Pro Team04h 50' 24"+  00:13:24 =42,355  km/h

160  Grega Bole  Lampre-ISD04h 50' 24"+  00:13:24 =42,355  km/h

161  Alexandre Vinokourov  Astana Pro Team04h 50' 24"+  00:13:24 =42,355  km/h

162  Anders Lund  Saxo Bank-Tinkoff Bank04h 50' 24"+  00:13:24 =42,355  km/h

163  Hubert Dupont  AG2R La Mondiale04h 50' 24"+  00:13:24 =42,355  km/h

164  Simone Stortoni  Lampre-ISD04h 50' 24"+  00:13:24 =42,355  km/h

165  Yury  Trofimov  Katusha04h 50' 24"+  00:13:24 =42,355  km/h

166  Brice Feillu  Saur-Sojasun04h 50' 24"+  00:13:24 =42,355  km/h

167  Christophe Kern  Europcar04h 50' 24"+  00:13:24 =42,355  km/h

168  Lieuwe Westra  Vacansoleil-DCM04h 50' 24"+  00:13:24 =42,355  km/h

169  Vladimir Karpets  Movistar04h 50' 24"+  00:13:24 =42,355  km/h

170  Richie Porte  Sky Procycling04h 50' 24"+  00:13:24 =42,355  km/h

171  Robert Hunter  Garmin-Sharp-Barracuda04h 50' 24"+  00:13:24 =42,355  km/h

172  Christian Vandevelde  Garmin-Sharp-Barracuda04h 50' 24"+  00:13:24 =42,355  km/h

173  Luis Angel Mate  Cofidis Le Credit En Ligne04h 50' 24"+  00:13:24 =42,355  km/h

174  Julien Fouchard  Cofidis Le Credit En Ligne04h 50' 24"+  00:13:24 =42,355  km/h

175  Laurens Ten Dam  Rabobank04h 50' 24"+  00:13:24 =42,355  km/h

176  Dan Martin  Garmin-Sharp-Barracuda04h 50' 24"+  00:13:24 =42,355  km/h

177  Federico Canuti  Liquigas-Cannondale04h 50' 24"+  00:13:24 =42,355  km/h

178  Dominik Nerz  Liquigas-Cannondale04h 50' 24"+  00:13:24 =42,355  km/h

179  Imanol Erviti  Movistar04h 50' 24"+  00:13:24 =42,355  km/h

180  Rubén Plaza  Movistar04h 50' 24"+  00:13:24 =42,355  km/h

181  Ryder Hesjedal  Garmin-Sharp-Barracuda04h 50' 24"+  00:13:24 =42,355  km/h

182  David Millar  Garmin-Sharp-Barracuda04h 50' 24"+  00:13:24 =42,355  km/h

183  Tyler Farrar  Garmin-Sharp-Barracuda04h 50' 24"+  00:13:24 =42,355  km/h

184  Maarten Wynants  Rabobank04h 50' 24"+  00:13:24 =42,355  km/h

185  Rob Ruijgh  Vacansoleil-DCM04h 50' 24"+  00:13:24 =42,355  km/h

186  Gorka Verdugo  Euskaltel-Euskadi04h 50' 24"+  00:13:24 =42,355  km/h

187  Francis De Greef  Lotto-Belisol04h 50' 24"+  00:13:24 =42,355  km/h

188  Bram Tankink  Rabobank04h 50' 24"+  00:13:24 =42,355  km/h

189  Amets Txurruka  Euskaltel-Euskadi04h 50' 24"+  00:13:24 =42,355  km/h

190  Johan Vansummeren  Garmin-Sharp-Barracuda04h 53' 12"+  00:16:12 =41,951  km/h


Withdrawls: 4
 RiderTeamReason
32   Mikel Astarloza Euskaltel-EuskadiDid not finish
49   Davide Vigano Lampre-ISDDid not finish
62   Tom Danielson Garmin-Sharp-BarracudaDid not finish
126   Wout Poels Vacansoleil-DCMDid not finish
Todays birthdays.

1884 • Vincenzo Borgarello
1889 • Emile Bonnefoi
1889 • Auguste Denizot
1890 • Maurice Petit
1904 • Pierino Ferioli
1905 • Vincent Carrara
1910 • Antoon Van Schendel
1925 • Georges Meunier
1945 • Gérard Besnard
1950 • Wim Kelleners
1960 • Ivan Ivanov
1960 • Pierre-Henri Menthéour
1962 • Giovanni Bottoia
1964 • Flavio Giupponi
1974 • Benoit Salmon
1977 • Iñigo Landaluze
1977 • Svein Tuft
1979 • Rubens Bertogliati
1985 • Matthew Busche

 

Optimized for Chrome - Edge
and Opera browsers.